createdAt,value
2023-03-22T00:00:27.988Z,100313.98
2023-03-22T00:03:16.266Z,100312.83
2023-03-22T00:05:44.916Z,100310.45
2023-03-22T00:08:13.794Z,100308.98
2023-03-22T00:10:42.207Z,100305.46
2023-03-22T00:13:11.740Z,100305.73
2023-03-22T00:15:44.867Z,100303.18
2023-03-22T00:18:17.399Z,100300.52
2023-03-22T00:20:53.987Z,100298.14
2023-03-22T00:23:25.113Z,100294.30
2023-03-22T00:25:53.548Z,100296.70
2023-03-22T00:28:22.396Z,100289.20
2023-03-22T00:30:56.627Z,100285.13
2023-03-22T00:33:29.986Z,100287.65
2023-03-22T00:36:04.511Z,100292.16
2023-03-22T00:38:43.970Z,100289.17
2023-03-22T00:41:22.035Z,100286.39
2023-03-22T00:43:51.638Z,100284.32
2023-03-22T00:46:22.659Z,100283.23
2023-03-22T00:48:51.913Z,100288.76
2023-03-22T00:51:21.198Z,100282.73
2023-03-22T00:53:51.072Z,100284.19
2023-03-22T00:56:19.646Z,100275.06
2023-03-22T00:58:56.417Z,100274.50
2023-03-22T01:01:25.577Z,100272.15
2023-03-22T01:03:56.240Z,100266.71
2023-03-22T01:06:25.298Z,100265.35
2023-03-22T01:08:55.315Z,100263.20
2023-03-22T01:11:23.947Z,100258.98
2023-03-22T01:13:52.425Z,100259.22
2023-03-22T01:16:21.863Z,100258.71
2023-03-22T01:18:51.536Z,100258.67
2023-03-22T01:21:19.801Z,100263.39
2023-03-22T01:23:48.355Z,100264.64
2023-03-22T01:26:18.728Z,100260.41
2023-03-22T01:28:46.794Z,100262.67
2023-03-22T01:31:17.067Z,100260.72
2023-03-22T01:33:45.133Z,100255.22
2023-03-22T01:36:13.290Z,100253.41
2023-03-22T01:38:41.504Z,100251.48
2023-03-22T01:41:10.875Z,100248.64
2023-03-22T01:43:43.308Z,100247.36
2023-03-22T01:46:12.353Z,100240.19
2023-03-22T01:48:48.746Z,100238.64
2023-03-22T01:51:22.759Z,100237.73
2023-03-22T01:54:17.370Z,100234.35
2023-03-22T01:56:51.566Z,100232.50
2023-03-22T01:59:26.973Z,100232.86
2023-03-22T02:02:15.032Z,100231.44
2023-03-22T02:04:50.632Z,100228.39
2023-03-22T02:07:27.491Z,100226.95
2023-03-22T02:09:57.264Z,100223.31
2023-03-22T02:13:13.439Z,100224.16
2023-03-22T02:16:11.963Z,100220.05
2023-03-22T02:19:29.421Z,100213.60
2023-03-22T02:22:04.406Z,100211.46
2023-03-22T02:24:47.049Z,100212.74
2023-03-22T02:27:26.044Z,100214.20
2023-03-22T02:30:10.180Z,100214.84
2023-03-22T02:36:39.938Z,100214.65
2023-03-22T02:39:26.677Z,100210.57
2023-03-22T02:42:32.113Z,100208.27
2023-03-22T02:45:24.992Z,100203.08
2023-03-22T02:47:59.546Z,100202.75
2023-03-22T02:50:35.671Z,100200.61
2023-03-22T02:53:21.916Z,100199.35
2023-03-22T02:56:08.411Z,100196.17
2023-03-22T02:58:45.872Z,100191.89
2023-03-22T03:01:26.339Z,100189.98
2023-03-22T03:03:59.442Z,100189.46
2023-03-22T03:06:32.350Z,100192.39
2023-03-22T03:09:05.067Z,100187.26
2023-03-22T03:11:38.235Z,100184.00
2023-03-22T03:14:06.352Z,100184.86
2023-03-22T03:16:39.451Z,100186.29
2023-03-22T03:19:23.776Z,100186.30
2023-03-22T03:22:31.984Z,100187.77
2023-03-22T03:25:06.921Z,100182.23
2023-03-22T03:27:41.581Z,100179.45
2023-03-22T03:30:23.539Z,100176.11
2023-03-22T03:32:59.460Z,100178.37
2023-03-22T03:35:38.676Z,100177.10
2023-03-22T03:38:11.799Z,100174.76
2023-03-22T03:40:53.729Z,100173.19
2023-03-22T03:43:25.652Z,100169.75
2023-03-22T03:45:55.086Z,100170.50
2023-03-22T03:48:28.044Z,100172.47
2023-03-22T03:50:58.154Z,100174.27
2023-03-22T03:53:28.680Z,100178.07
2023-03-22T03:55:56.887Z,100175.73
2023-03-22T03:58:25.663Z,100180.02
2023-03-22T04:05:11.851Z,100171.42
2023-03-22T04:07:40.496Z,100172.30
2023-03-22T04:10:09.152Z,100175.16
2023-03-22T04:12:37.376Z,100175.95
2023-03-22T04:15:13.574Z,100175.91
2023-03-22T04:17:41.999Z,100177.08
2023-03-22T04:20:12.458Z,100179.23
2023-03-22T04:22:41.764Z,100176.23
2023-03-22T04:25:12.392Z,100174.60
2023-03-22T04:27:51.327Z,100179.17
2023-03-22T04:30:20.650Z,100174.26
2023-03-22T04:33:07.681Z,100173.78
2023-03-22T04:35:57.451Z,100176.41
2023-03-22T04:38:31.538Z,100177.19
2023-03-22T04:41:00.475Z,100179.32
2023-03-22T04:43:47.195Z,100175.33
2023-03-22T04:46:18.489Z,100175.99
2023-03-22T04:48:51.222Z,100169.89
2023-03-22T04:51:19.827Z,100170.73
2023-03-22T04:54:06.792Z,100174.55
2023-03-22T04:56:35.711Z,100174.15
2023-03-22T04:59:07.381Z,100172.67
2023-03-22T05:01:36.082Z,100176.46
2023-03-22T05:04:11.927Z,100171.19
2023-03-22T05:06:40.795Z,100164.77
2023-03-22T05:09:14.455Z,100171.81
2023-03-22T05:11:42.827Z,100169.95
2023-03-22T05:14:21.473Z,100172.56
2023-03-22T05:16:49.505Z,100167.02
2023-03-22T05:19:18.149Z,100169.42
2023-03-22T05:21:49.137Z,100170.98
2023-03-22T05:24:17.373Z,100171.09
2023-03-22T05:26:53.900Z,100169.50
2023-03-22T05:29:24.495Z,100167.64
2023-03-22T05:32:06.715Z,100161.24
2023-03-22T05:34:36.177Z,100162.77
2023-03-22T05:37:16.886Z,100157.80
2023-03-22T05:39:54.607Z,100160.05
2023-03-22T05:42:27.197Z,100160.73
2023-03-22T05:44:56.025Z,100159.41
2023-03-22T05:47:24.307Z,100159.88
2023-03-22T05:49:58.747Z,100152.13
2023-03-22T05:52:27.391Z,100151.41
2023-03-22T05:55:24.531Z,100152.32
2023-03-22T05:57:56.768Z,100154.84
2023-03-22T06:00:27.361Z,100152.90
2023-03-22T06:03:18.695Z,100154.45
2023-03-22T06:05:54.750Z,100156.63
2023-03-22T06:08:28.447Z,100157.36
2023-03-22T06:10:58.860Z,100156.89
2023-03-22T06:13:28.132Z,100157.08
2023-03-22T06:16:01.102Z,100156.75
2023-03-22T06:18:34.548Z,100151.96
2023-03-22T06:21:09.998Z,100157.82
2023-03-22T06:23:39.820Z,100153.09
2023-03-22T06:26:11.571Z,100156.30
2023-03-22T06:28:42.927Z,100151.48
2023-03-22T06:31:12.579Z,100152.79
2023-03-22T06:33:49.228Z,100149.99
2023-03-22T06:36:26.168Z,100149.88
2023-03-22T06:39:17.451Z,100151.49
2023-03-22T06:41:46.400Z,100148.99
2023-03-22T06:44:15.025Z,100147.70
2023-03-22T06:47:04.584Z,100143.59
2023-03-22T06:49:53.428Z,100144.66
2023-03-22T06:52:27.345Z,100144.82
2023-03-22T06:54:57.002Z,100143.11
2023-03-22T06:57:26.007Z,100137.57
2023-03-22T06:59:54.241Z,100141.20
2023-03-22T07:02:22.356Z,100141.38
2023-03-22T07:05:20.630Z,100142.61
2023-03-22T07:07:48.969Z,100142.97
2023-03-22T07:10:17.288Z,100140.71
2023-03-22T07:12:45.558Z,100140.02
2023-03-22T07:15:17.541Z,100140.38
2023-03-22T07:18:08.021Z,100136.74
2023-03-22T07:20:41.679Z,100140.55
2023-03-22T07:23:13.212Z,100136.92
2023-03-22T07:25:48.761Z,100130.17
2023-03-22T07:28:27.208Z,100122.04
2023-03-22T07:31:12.390Z,100126.49
2023-03-22T07:33:48.446Z,100124.91
2023-03-22T07:36:16.890Z,100123.49
2023-03-22T07:38:45.136Z,100116.19
2023-03-22T07:41:16.218Z,100110.23
2023-03-22T07:44:04.791Z,100109.92
2023-03-22T07:46:43.184Z,100110.44
2023-03-22T07:49:23.345Z,100113.54
2023-03-22T07:52:14.242Z,100109.92
2023-03-22T07:54:42.694Z,100108.64
2023-03-22T07:57:11.832Z,100107.00
2023-03-22T07:59:45.037Z,100104.66
2023-03-22T08:02:13.461Z,100097.36
2023-03-22T08:04:53.177Z,100095.63
2023-03-22T08:07:43.142Z,100096.50
2023-03-22T08:10:12.050Z,100095.89
2023-03-22T08:12:41.507Z,100093.84
2023-03-22T08:15:17.509Z,100089.20
2023-03-22T08:17:49.856Z,100092.95
2023-03-22T08:20:28.169Z,100089.45
2023-03-22T08:22:59.658Z,100090.30
2023-03-22T08:25:47.933Z,100090.67
2023-03-22T08:28:18.639Z,100092.66
2023-03-22T08:30:48.933Z,100093.25
2023-03-22T08:33:17.515Z,100092.67
2023-03-22T08:35:47.624Z,100091.72
2023-03-22T08:38:15.863Z,100093.67
2023-03-22T08:40:48.077Z,100092.30
2023-03-22T08:43:19.553Z,100096.61
2023-03-22T08:45:47.959Z,100098.15
2023-03-22T08:48:17.835Z,100100.23
2023-03-22T08:51:01.532Z,100095.21
2023-03-22T08:53:45.051Z,100101.14
2023-03-22T08:56:47.017Z,100099.60
2023-03-22T08:59:33.574Z,100094.64
2023-03-22T09:02:28.112Z,100090.16
2023-03-22T09:04:56.797Z,100087.95
2023-03-22T09:07:27.549Z,100092.61
2023-03-22T09:10:04.984Z,100092.92
2023-03-22T09:12:33.258Z,100087.55
2023-03-22T09:15:02.096Z,100088.22
2023-03-22T09:17:31.213Z,100081.60
2023-03-22T09:20:11.555Z,100070.91
2023-03-22T09:22:41.509Z,100068.26
2023-03-22T09:25:12.971Z,100059.35
2023-03-22T09:27:43.437Z,100054.45
2023-03-22T09:30:12.023Z,100050.36
2023-03-22T09:32:40.105Z,100048.00
2023-03-22T09:35:08.988Z,100047.34
2023-03-22T09:37:45.760Z,100045.97
2023-03-22T09:40:14.577Z,100035.77
2023-03-22T09:42:48.252Z,100039.06
2023-03-22T09:45:35.486Z,100044.79
2023-03-22T09:48:12.387Z,100044.21
2023-03-22T09:50:46.989Z,100037.81
2023-03-22T09:53:17.319Z,100034.89
2023-03-22T09:55:56.026Z,100036.84
2023-03-22T09:58:46.884Z,100034.09
2023-03-22T10:01:39.626Z,100034.38
2023-03-22T10:04:44.578Z,100036.31
2023-03-22T10:07:28.056Z,100036.49
2023-03-22T10:10:12.474Z,100037.91
2023-03-22T10:12:40.585Z,100032.55
2023-03-22T10:15:17.304Z,100034.83
2023-03-22T10:17:54.667Z,100042.83
2023-03-22T10:20:41.070Z,100037.40
2023-03-22T10:23:21.768Z,100035.78
2023-03-22T10:25:50.738Z,100037.48
2023-03-22T10:28:23.946Z,100040.84
2023-03-22T10:30:55.559Z,100039.55
2023-03-22T10:33:43.524Z,100038.61
2023-03-22T10:36:15.229Z,100035.29
2023-03-22T10:38:49.063Z,100034.05
2023-03-22T10:41:20.577Z,100030.33
2023-03-22T10:43:55.708Z,100026.81
2023-03-22T10:46:27.789Z,100030.34
2023-03-22T10:49:00.638Z,100029.42
2023-03-22T10:51:39.262Z,100026.27
2023-03-22T10:54:13.553Z,100029.02
2023-03-22T10:56:42.370Z,100025.63
2023-03-22T11:04:37.490Z,100008.28
2023-03-22T11:07:05.438Z,100002.81
2023-03-22T11:09:33.473Z,99997.14
2023-03-22T11:12:03.012Z,100001.33
2023-03-22T11:14:33.287Z,100002.29
2023-03-22T11:17:10.207Z,100004.05
2023-03-22T11:19:38.078Z,100003.17
2023-03-22T11:22:31.515Z,100005.56
2023-03-22T11:25:01.199Z,100005.45
2023-03-22T11:27:36.534Z,100005.89
2023-03-22T11:30:25.713Z,100003.11
2023-03-22T11:33:26.012Z,100000.16
2023-03-22T11:36:01.861Z,99997.77
2023-03-22T11:38:41.221Z,99996.67
2023-03-22T11:41:14.936Z,99991.70
2023-03-22T11:43:49.127Z,99993.52
2023-03-22T11:46:21.625Z,99988.99
2023-03-22T11:48:53.099Z,99982.00
2023-03-22T11:51:31.050Z,99978.35
2023-03-22T11:54:13.647Z,99971.04
2023-03-22T11:56:45.608Z,99976.59
2023-03-22T11:59:16.905Z,99973.24
2023-03-22T12:01:58.948Z,99961.23
2023-03-22T12:04:31.489Z,99960.49
2023-03-22T12:07:06.162Z,99954.17
2023-03-22T12:09:45.158Z,99952.08
2023-03-22T12:12:18.010Z,99957.23
2023-03-22T12:15:06.526Z,99951.24
2023-03-22T12:17:44.001Z,99948.79
2023-03-22T12:20:18.257Z,99941.70
2023-03-22T12:22:52.787Z,99940.53
2023-03-22T12:25:30.551Z,99941.44
2023-03-22T12:28:07.626Z,99938.56
2023-03-22T12:31:03.883Z,99936.91
2023-03-22T12:33:43.212Z,99931.13
2023-03-22T12:36:19.417Z,99918.75
2023-03-22T12:38:56.482Z,99917.77
2023-03-22T12:41:40.977Z,99912.00
2023-03-22T12:44:30.560Z,99911.14
2023-03-22T12:47:08.246Z,99906.22
2023-03-22T12:49:41.573Z,99901.41
2023-03-22T12:52:19.207Z,99902.40
2023-03-22T12:54:51.236Z,99907.44
2023-03-22T12:57:19.493Z,99909.16
2023-03-22T12:59:51.857Z,99908.42
2023-03-22T13:02:52.159Z,99909.33
2023-03-22T13:05:20.507Z,99901.75
2023-03-22T13:07:48.594Z,99896.73
2023-03-22T13:10:36.720Z,99889.77
2023-03-22T13:13:07.644Z,99885.73
2023-03-22T13:15:42.299Z,99882.35
2023-03-22T13:18:49.775Z,99875.61
2023-03-22T13:21:21.357Z,99872.75
2023-03-22T13:23:55.355Z,99869.40
2023-03-22T13:26:33.218Z,99870.42
2023-03-22T13:29:09.220Z,99871.84
2023-03-22T13:31:44.703Z,99868.55
2023-03-22T13:34:21.456Z,99871.55
2023-03-22T13:36:53.800Z,99872.09
2023-03-22T13:39:25.095Z,99872.20
2023-03-22T13:42:06.268Z,99868.19
2023-03-22T13:44:43.056Z,99865.09
2023-03-22T13:47:31.895Z,99869.28
2023-03-22T13:50:14.829Z,99864.02
2023-03-22T13:52:53.152Z,99861.35
2023-03-22T13:55:43.052Z,99866.08
2023-03-22T13:58:36.242Z,99865.98
2023-03-22T14:01:29.020Z,99862.52
2023-03-22T14:04:01.378Z,99862.49
2023-03-22T14:06:36.640Z,99855.38
2023-03-22T14:09:16.819Z,99856.61
2023-03-22T14:12:04.273Z,99849.48
2023-03-22T14:14:40.628Z,99848.17
2023-03-22T14:17:21.413Z,99848.03
2023-03-22T14:19:51.910Z,99855.31
